createdAt,value
2018-03-20T00:02:07.740Z,11.50
2018-03-20T00:04:33.761Z,12.25
2018-03-20T00:06:59.774Z,10.80
2018-03-20T00:09:25.949Z,11.10
2018-03-20T00:11:52.094Z,12.00
2018-03-20T00:14:18.106Z,12.07
2018-03-20T00:16:44.421Z,11.95
2018-03-20T00:19:10.510Z,11.70
2018-03-20T00:21:36.554Z,14.05
2018-03-20T00:24:02.577Z,11.85
2018-03-20T00:26:28.578Z,10.75
2018-03-20T00:28:54.563Z,12.02
2018-03-20T00:31:20.567Z,13.60
2018-03-20T00:33:46.622Z,15.00
2018-03-20T00:36:12.666Z,13.07
2018-03-20T00:38:38.711Z,12.52
2018-03-20T00:41:04.769Z,12.23
2018-03-20T00:43:30.766Z,16.85
2018-03-20T00:45:56.782Z,12.23
2018-03-20T00:48:22.793Z,13.43
2018-03-20T00:50:48.829Z,13.25
2018-03-20T00:53:14.828Z,12.77
2018-03-20T00:55:40.878Z,12.82
2018-03-20T00:58:06.852Z,17.17
2018-03-20T01:00:32.835Z,15.27
2018-03-20T01:02:58.867Z,13.05
2018-03-20T01:05:24.881Z,14.85
2018-03-20T01:07:50.887Z,17.80
2018-03-20T01:10:16.905Z,16.77
2018-03-20T01:12:42.991Z,14.10
2018-03-20T01:15:09.005Z,15.68
2018-03-20T01:17:35.014Z,14.52
2018-03-20T01:20:01.182Z,14.40
2018-03-20T01:22:27.198Z,14.23
2018-03-20T01:24:53.210Z,13.25
2018-03-20T01:27:19.755Z,12.37
2018-03-20T01:29:45.845Z,14.23
2018-03-20T01:32:11.843Z,18.60
2018-03-20T01:34:37.860Z,12.88
2018-03-20T01:37:03.878Z,15.07
2018-03-20T01:39:29.976Z,19.90
2018-03-20T01:41:56.103Z,12.60
2018-03-20T01:44:22.154Z,14.38
2018-03-20T01:46:48.190Z,16.98
2018-03-20T01:49:14.237Z,18.08
2018-03-20T01:51:40.274Z,15.18
2018-03-20T01:54:06.467Z,20.17
2018-03-20T01:56:32.512Z,17.52
2018-03-20T01:58:58.548Z,16.77
2018-03-20T02:01:24.521Z,16.15
2018-03-20T02:03:50.537Z,15.77
2018-03-20T02:06:16.565Z,17.58
2018-03-20T02:08:42.590Z,21.70
2018-03-20T02:11:08.634Z,15.80
2018-03-20T02:13:34.648Z,15.60
2018-03-20T02:16:01.405Z,14.75
2018-03-20T02:18:27.428Z,19.98
2018-03-20T02:20:53.448Z,19.15
2018-03-20T02:23:19.751Z,16.33
2018-03-20T02:25:45.800Z,20.08
2018-03-20T02:28:11.895Z,11.90
2018-03-20T02:30:38.040Z,17.00
2018-03-20T02:33:04.066Z,19.15
2018-03-20T02:35:30.112Z,13.60
2018-03-20T02:37:56.212Z,16.00
2018-03-20T02:40:22.234Z,17.20
2018-03-20T02:42:48.353Z,16.30
2018-03-20T02:45:14.389Z,21.40
2018-03-20T02:47:40.434Z,19.80
2018-03-20T02:50:06.482Z,19.70
2018-03-20T02:52:32.488Z,25.37
2018-03-20T02:54:58.535Z,17.15
2018-03-20T02:57:24.546Z,17.33
2018-03-20T02:59:50.546Z,19.45
2018-03-20T03:02:16.569Z,16.85
2018-03-20T03:04:42.629Z,23.27
2018-03-20T03:07:08.647Z,25.60
2018-03-20T03:09:34.702Z,22.98
2018-03-20T03:12:00.743Z,28.58
2018-03-20T03:14:26.770Z,19.77
2018-03-20T03:16:52.838Z,19.58
2018-03-20T03:19:18.826Z,29.20
2018-03-20T03:21:44.814Z,19.75
2018-03-20T03:24:10.827Z,30.48
2018-03-20T03:26:36.838Z,18.05
2018-03-20T03:29:02.854Z,32.60
2018-03-20T03:31:28.871Z,23.33
2018-03-20T03:33:54.944Z,25.48
2018-03-20T03:36:20.952Z,19.95
2018-03-20T03:38:47.016Z,24.77
2018-03-20T03:41:13.043Z,22.00
2018-03-20T03:43:39.146Z,20.58
2018-03-20T03:46:05.267Z,25.15
2018-03-20T03:48:31.266Z,20.90
2018-03-20T03:50:57.258Z,20.10
2018-03-20T03:53:23.521Z,23.48
2018-03-20T03:55:49.538Z,21.12
2018-03-20T03:58:15.546Z,26.45
2018-03-20T04:00:41.556Z,30.62
2018-03-20T04:03:07.690Z,16.12
2018-03-20T04:05:33.779Z,20.33
2018-03-20T04:07:59.873Z,22.30
2018-03-20T04:10:25.907Z,22.67
2018-03-20T04:12:58.789Z,19.37
2018-03-20T04:15:24.902Z,28.87
2018-03-20T04:17:50.918Z,20.27
2018-03-20T04:20:16.996Z,28.42
2018-03-20T04:22:43.125Z,17.10
2018-03-20T04:25:09.159Z,21.23
2018-03-20T04:27:35.250Z,20.35
2018-03-20T04:30:01.264Z,19.35
2018-03-20T04:32:27.317Z,24.77
2018-03-20T04:34:53.388Z,27.15
2018-03-20T04:37:19.498Z,17.70
2018-03-20T04:39:45.510Z,15.60
2018-03-20T04:42:11.529Z,16.20
2018-03-20T04:44:37.642Z,16.83
2018-03-20T04:47:03.703Z,16.10
2018-03-20T04:49:29.713Z,12.75
2018-03-20T04:51:55.709Z,13.80
2018-03-20T04:54:21.771Z,13.00
2018-03-20T04:56:47.862Z,14.07
2018-03-20T04:59:13.928Z,9.15
2018-03-20T05:01:39.908Z,13.65
2018-03-20T05:04:06.073Z,12.95
2018-03-20T05:06:32.276Z,14.20
2018-03-20T05:08:58.277Z,13.05
2018-03-20T05:11:24.323Z,23.80
2018-03-20T05:13:50.439Z,10.77
2018-03-20T05:16:16.496Z,15.05
2018-03-20T05:18:43.548Z,19.65
2018-03-20T05:21:10.478Z,13.93
2018-03-20T05:23:54.205Z,13.88
2018-03-20T05:26:20.379Z,18.65
2018-03-20T05:28:46.388Z,12.75
2018-03-20T05:31:12.445Z,18.27
2018-03-20T05:33:38.591Z,24.75
2018-03-20T05:36:04.661Z,21.23
2018-03-20T05:38:30.716Z,15.85
2018-03-20T05:40:56.767Z,18.98
2018-03-20T05:43:22.802Z,17.02
2018-03-20T05:45:48.836Z,12.15
2018-03-20T05:48:27.802Z,20.95
2018-03-20T05:51:00.110Z,15.60
2018-03-20T05:53:26.235Z,16.95
2018-03-20T05:55:52.275Z,29.25
2018-03-20T05:58:18.315Z,15.07
2018-03-20T06:00:44.319Z,20.50
2018-03-20T06:03:10.423Z,14.70
2018-03-20T06:05:36.542Z,21.23
2018-03-20T06:08:02.563Z,15.02
2018-03-20T06:10:28.634Z,17.27
2018-03-20T06:12:54.669Z,15.20
2018-03-20T06:15:20.711Z,19.30
2018-03-20T06:17:46.778Z,20.12
2018-03-20T06:20:12.963Z,16.87
2018-03-20T06:22:39.586Z,16.60
2018-03-20T06:25:05.733Z,24.45
2018-03-20T06:27:31.785Z,16.45
2018-03-20T06:29:57.814Z,18.15
2018-03-20T06:32:23.930Z,21.70
2018-03-20T06:34:50.020Z,18.83
2018-03-20T06:37:16.031Z,18.60
2018-03-20T06:39:42.042Z,15.02
2018-03-20T06:42:08.079Z,24.65
2018-03-20T06:44:34.116Z,14.45
2018-03-20T06:47:00.118Z,21.12
2018-03-20T06:49:26.138Z,22.62
2018-03-20T06:51:52.218Z,30.08
2018-03-20T06:54:18.221Z,15.00
2018-03-20T06:56:44.220Z,20.52
2018-03-20T06:59:10.343Z,16.45
2018-03-20T07:01:36.401Z,19.00
2018-03-20T07:04:02.429Z,24.08
2018-03-20T07:06:28.501Z,25.40
2018-03-20T07:08:54.530Z,25.55
2018-03-20T07:11:20.566Z,14.87
2018-03-20T07:13:46.552Z,20.70
2018-03-20T07:16:12.605Z,20.05
2018-03-20T07:18:38.592Z,29.17
2018-03-20T07:21:04.614Z,21.02
2018-03-20T07:23:30.650Z,17.10
2018-03-20T07:25:56.661Z,28.60
2018-03-20T07:28:22.815Z,18.20
2018-03-20T07:30:48.782Z,30.90
2018-03-20T07:33:14.831Z,18.42
2018-03-20T07:35:40.835Z,19.10
2018-03-20T07:38:06.911Z,18.87
2018-03-20T07:40:32.915Z,18.00
2018-03-20T07:42:58.932Z,21.02
2018-03-20T07:45:24.948Z,14.35
2018-03-20T07:47:50.957Z,19.80
2018-03-20T07:50:16.989Z,17.15
2018-03-20T07:52:43.018Z,16.85
2018-03-20T07:55:09.041Z,18.42
2018-03-20T07:57:35.039Z,19.08
2018-03-20T08:00:01.100Z,16.45
2018-03-20T08:02:27.158Z,13.27
2018-03-20T08:04:53.148Z,13.40
2018-03-20T08:07:19.294Z,13.60
2018-03-20T08:09:45.301Z,16.48
2018-03-20T08:12:11.289Z,11.75
2018-03-20T08:14:37.342Z,13.57
2018-03-20T08:17:03.523Z,16.15
2018-03-20T08:19:29.549Z,9.85
2018-03-20T08:21:55.633Z,9.93
2018-03-20T08:24:21.805Z,13.45
2018-03-20T08:26:47.988Z,13.13
2018-03-20T08:29:14.104Z,12.70
2018-03-20T08:31:40.086Z,10.95
2018-03-20T08:34:06.117Z,15.43
2018-03-20T08:36:32.382Z,9.98
2018-03-20T08:38:58.417Z,10.80
2018-03-20T08:41:24.632Z,9.13
2018-03-20T08:43:50.674Z,10.48
2018-03-20T08:46:16.682Z,11.70
2018-03-20T08:48:42.715Z,10.85
2018-03-20T08:51:08.743Z,8.63
2018-03-20T08:53:34.759Z,10.40
2018-03-20T08:56:00.769Z,10.18
2018-03-20T08:58:26.836Z,11.43
2018-03-20T09:00:52.831Z,9.85
2018-03-20T09:03:18.895Z,10.00
2018-03-20T09:05:44.986Z,10.02
2018-03-20T09:08:10.986Z,7.90
2018-03-20T09:10:37.062Z,9.13
2018-03-20T09:13:03.207Z,6.57
2018-03-20T09:15:29.253Z,7.15
2018-03-20T09:17:55.301Z,7.47
2018-03-20T09:20:21.368Z,7.55
2018-03-20T09:22:47.423Z,10.70
2018-03-20T09:25:13.445Z,5.95
2018-03-20T09:27:39.584Z,6.65
2018-03-20T09:30:05.634Z,4.82
2018-03-20T09:32:31.627Z,4.55
2018-03-20T09:34:57.683Z,6.57
2018-03-20T09:37:24.107Z,8.57
2018-03-20T09:39:50.135Z,6.70
2018-03-20T09:42:16.754Z,8.83
2018-03-20T09:44:42.789Z,6.63
2018-03-20T09:47:08.819Z,6.77
2018-03-20T09:49:34.848Z,5.73
2018-03-20T09:52:00.866Z,5.17
2018-03-20T09:54:26.907Z,4.32
2018-03-20T09:56:53.000Z,4.07
2018-03-20T09:59:19.138Z,6.47
2018-03-20T10:01:45.151Z,3.30
2018-03-20T10:04:11.176Z,5.63
2018-03-20T10:06:37.228Z,3.00
2018-03-20T10:09:03.403Z,3.60
2018-03-20T10:11:29.437Z,3.57
2018-03-20T10:13:55.948Z,6.60
2018-03-20T10:16:21.965Z,3.80
2018-03-20T10:18:48.036Z,2.37
2018-03-20T10:21:14.731Z,5.57
2018-03-20T10:23:40.735Z,5.97
2018-03-20T10:26:06.812Z,4.07
2018-03-20T10:28:32.826Z,7.20
2018-03-20T10:30:58.835Z,2.43
2018-03-20T10:33:24.988Z,1.93
2018-03-20T10:35:50.985Z,3.30
2018-03-20T10:38:17.098Z,2.13
2018-03-20T10:40:43.154Z,2.60
2018-03-20T10:43:09.204Z,2.77
2018-03-20T10:45:35.209Z,4.23
2018-03-20T10:48:01.330Z,4.13
2018-03-20T10:50:27.399Z,1.33
2018-03-20T10:52:53.465Z,4.33
2018-03-20T10:55:19.490Z,3.50
2018-03-20T10:57:45.599Z,4.40
2018-03-20T11:00:11.688Z,3.00
2018-03-20T11:02:43.782Z,5.20
2018-03-20T11:05:09.809Z,6.20
2018-03-20T11:07:35.848Z,4.07
2018-03-20T11:10:02.359Z,1.85
2018-03-20T11:12:28.409Z,3.00
2018-03-20T11:14:54.410Z,2.60
2018-03-20T11:17:20.448Z,2.53
2018-03-20T11:19:46.480Z,3.03
2018-03-20T11:22:12.497Z,3.90
2018-03-20T11:24:38.517Z,5.47
2018-03-20T11:27:04.554Z,3.33
2018-03-20T11:29:30.573Z,2.25
2018-03-20T11:31:56.669Z,2.73
2018-03-20T11:34:22.780Z,4.37
2018-03-20T11:36:48.836Z,3.47
2018-03-20T11:39:14.878Z,5.83
2018-03-20T11:41:40.883Z,5.17
2018-03-20T11:44:06.968Z,5.93
2018-03-20T11:46:33.113Z,3.50
2018-03-20T11:48:59.152Z,7.07
2018-03-20T11:51:25.204Z,4.53
2018-03-20T11:53:51.289Z,4.13
2018-03-20T11:56:17.432Z,2.50
2018-03-20T11:58:43.582Z,4.80
2018-03-20T12:01:09.686Z,5.23
2018-03-20T12:03:35.781Z,4.87
2018-03-20T12:06:01.838Z,3.33
2018-03-20T12:08:40.068Z,3.33
2018-03-20T12:11:06.168Z,2.97
2018-03-20T12:13:32.180Z,3.53
2018-03-20T12:15:58.202Z,2.40
2018-03-20T12:18:24.270Z,5.10
2018-03-20T12:20:50.347Z,3.03
2018-03-20T12:23:16.395Z,5.20
2018-03-20T12:25:42.396Z,3.40
2018-03-20T12:28:08.475Z,4.17
2018-03-20T12:30:34.499Z,4.00
2018-03-20T12:33:00.552Z,3.80
2018-03-20T12:35:26.624Z,3.07
2018-03-20T12:37:52.638Z,2.80
2018-03-20T12:40:18.669Z,3.73
2018-03-20T12:42:44.830Z,3.27
2018-03-20T12:45:10.876Z,4.27
2018-03-20T12:47:37.065Z,4.13
2018-03-20T12:50:03.096Z,2.70
2018-03-20T12:52:29.211Z,4.77
2018-03-20T12:54:55.463Z,4.17
2018-03-20T12:57:22.019Z,4.90
2018-03-20T12:59:48.146Z,2.13
2018-03-20T13:02:14.171Z,3.17
2018-03-20T13:04:40.289Z,3.83
2018-03-20T13:07:06.266Z,3.07
2018-03-20T13:09:32.333Z,3.23
2018-03-20T13:11:58.377Z,3.00
2018-03-20T13:14:24.454Z,4.43
2018-03-20T13:16:50.495Z,5.40
2018-03-20T13:19:16.589Z,5.40
2018-03-20T13:21:42.610Z,4.97
2018-03-20T13:24:08.676Z,3.80
2018-03-20T13:26:34.733Z,4.43
2018-03-20T13:29:00.799Z,3.87
2018-03-20T13:31:26.802Z,2.60
2018-03-20T13:33:52.860Z,3.90
2018-03-20T13:36:18.908Z,3.97
2018-03-20T13:38:44.939Z,4.17
2018-03-20T13:41:10.982Z,5.73
2018-03-20T13:43:37.052Z,4.93
2018-03-20T13:46:03.061Z,4.83
2018-03-20T13:48:29.081Z,2.67
2018-03-20T13:50:58.677Z,3.77
2018-03-20T13:53:27.358Z,7.90
2018-03-20T13:55:53.562Z,6.63
2018-03-20T13:58:19.599Z,8.00
2018-03-20T14:00:45.636Z,6.37
2018-03-20T14:03:11.829Z,7.43
2018-03-20T14:05:37.961Z,8.07
2018-03-20T14:08:04.066Z,5.90
2018-03-20T14:10:30.088Z,6.23
2018-03-20T14:12:56.219Z,6.47
2018-03-20T14:15:22.246Z,7.23
2018-03-20T14:17:48.259Z,7.17
2018-03-20T14:20:14.311Z,6.97
2018-03-20T14:22:40.395Z,10.50
2018-03-20T14:25:06.420Z,7.57
2018-03-20T14:27:32.469Z,8.63
2018-03-20T14:29:58.536Z,8.33
2018-03-20T14:32:24.609Z,9.23
2018-03-20T14:34:50.704Z,8.57
2018-03-20T14:37:16.751Z,9.30
2018-03-20T14:39:42.841Z,7.20
2018-03-20T14:42:08.900Z,10.73
2018-03-20T14:44:34.956Z,6.60
2018-03-20T14:47:00.998Z,8.50
2018-03-20T14:49:27.182Z,8.13
2018-03-20T14:51:53.248Z,7.53
2018-03-20T14:54:19.305Z,10.80
2018-03-20T14:56:45.361Z,10.03
2018-03-20T14:59:11.581Z,10.53
2018-03-20T15:01:37.778Z,9.90
2018-03-20T15:04:03.993Z,9.53
2018-03-20T15:06:30.040Z,8.90
2018-03-20T15:08:56.159Z,12.00
2018-03-20T15:11:22.361Z,11.83
2018-03-20T15:13:48.446Z,14.30
2018-03-20T15:16:14.469Z,10.97
2018-03-20T15:18:40.542Z,8.97
2018-03-20T15:21:06.688Z,12.57
2018-03-20T15:23:32.787Z,11.17
2018-03-20T15:25:58.937Z,9.13
2018-03-20T15:28:24.984Z,8.93
2018-03-20T15:30:51.019Z,12.00
2018-03-20T15:33:17.096Z,10.00
2018-03-20T15:35:43.174Z,10.50
2018-03-20T15:38:09.802Z,10.40
2018-03-20T15:40:35.870Z,8.87
2018-03-20T15:43:01.978Z,9.07
2018-03-20T15:45:28.047Z,8.70
2018-03-20T15:47:54.103Z,11.83
2018-03-20T15:50:20.136Z,7.47
2018-03-20T15:52:46.242Z,11.90
2018-03-20T15:55:12.288Z,10.17
2018-03-20T15:57:39.223Z,8.70
2018-03-20T16:00:05.256Z,10.17
2018-03-20T16:02:31.425Z,10.20
2018-03-20T16:04:57.507Z,8.57
2018-03-20T16:07:23.499Z,9.33
2018-03-20T16:09:50.242Z,11.87
2018-03-20T16:12:16.269Z,8.17
2018-03-20T16:14:42.262Z,10.87
2018-03-20T16:17:08.396Z,7.87
2018-03-20T16:19:34.412Z,11.13
2018-03-20T16:22:00.430Z,12.90
2018-03-20T16:24:26.463Z,8.80
2018-03-20T16:26:52.575Z,13.13
2018-03-20T16:29:18.595Z,9.33
2018-03-20T16:31:44.626Z,7.78
2018-03-20T16:34:10.709Z,7.55
2018-03-20T16:36:36.790Z,8.52
2018-03-20T16:39:02.890Z,6.62
2018-03-20T16:41:28.916Z,5.37
2018-03-20T16:43:55.041Z,9.93
2018-03-20T16:46:21.103Z,8.10
2018-03-20T16:48:47.186Z,8.45
2018-03-20T16:51:13.221Z,8.10
2018-03-20T16:53:39.270Z,9.52
2018-03-20T16:56:05.339Z,13.05
2018-03-20T16:58:31.341Z,10.75
2018-03-20T17:00:57.388Z,9.63
2018-03-20T17:03:23.441Z,14.30
2018-03-20T17:05:49.466Z,11.50
2018-03-20T17:08:16.573Z,11.43
2018-03-20T17:10:42.598Z,10.68
2018-03-20T17:13:08.614Z,10.45
2018-03-20T17:15:34.646Z,8.88
2018-03-20T17:18:00.726Z,14.20
2018-03-20T17:20:27.108Z,6.95
2018-03-20T17:22:53.258Z,9.65
2018-03-20T17:25:19.393Z,14.55
2018-03-20T17:27:45.412Z,10.80
2018-03-20T17:30:11.546Z,10.07
2018-03-20T17:32:37.712Z,13.50
2018-03-20T17:35:03.762Z,15.77
2018-03-20T17:37:29.976Z,15.80
2018-03-20T17:39:56.061Z,13.82
2018-03-20T17:42:22.090Z,12.60
2018-03-20T17:44:48.177Z,20.75
2018-03-20T17:47:14.282Z,17.50
2018-03-20T17:49:40.350Z,16.65
2018-03-20T17:52:06.402Z,19.98
2018-03-20T17:54:32.561Z,18.58
2018-03-20T17:56:58.595Z,12.45
2018-03-20T17:59:24.762Z,15.95
2018-03-20T18:01:50.839Z,13.27
2018-03-20T18:04:16.896Z,13.82
2018-03-20T18:06:42.940Z,12.48
2018-03-20T18:09:08.958Z,20.50
2018-03-20T18:11:35.012Z,20.33
2018-03-20T18:14:01.071Z,15.02
2018-03-20T18:16:27.147Z,22.77
2018-03-20T18:18:53.373Z,20.65
2018-03-20T18:21:19.482Z,22.70
2018-03-20T18:23:45.604Z,21.40
2018-03-20T18:26:11.641Z,23.83
2018-03-20T18:28:38.292Z,23.10
2018-03-20T18:31:04.330Z,23.23
2018-03-20T18:33:30.382Z,18.40
2018-03-20T18:35:56.493Z,19.55
2018-03-20T18:38:22.534Z,27.27
2018-03-20T18:40:48.539Z,25.00
2018-03-20T18:43:14.580Z,20.95
2018-03-20T18:45:40.744Z,16.37
2018-03-20T18:48:06.868Z,26.75
2018-03-20T18:50:33.002Z,15.40
2018-03-20T18:52:59.181Z,23.35
2018-03-20T18:55:25.437Z,17.67
2018-03-20T18:57:51.546Z,20.42
2018-03-20T19:00:17.620Z,20.33
2018-03-20T19:02:43.676Z,20.92
2018-03-20T19:05:09.925Z,20.60
2018-03-20T19:07:36.117Z,32.88
2018-03-20T19:10:02.296Z,17.60
2018-03-20T19:12:28.359Z,20.95
2018-03-20T19:14:54.462Z,23.73
2018-03-20T19:17:20.549Z,21.15
2018-03-20T19:19:46.665Z,24.23
2018-03-20T19:22:12.669Z,31.12
2018-03-20T19:24:38.737Z,22.62
2018-03-20T19:27:04.869Z,26.65
2018-03-20T19:29:31.003Z,22.48
2018-03-20T19:31:57.164Z,18.77
2018-03-20T19:34:23.316Z,22.87
2018-03-20T19:36:49.514Z,21.83
2018-03-20T19:39:15.656Z,21.30
2018-03-20T19:41:41.762Z,23.15
2018-03-20T19:44:07.925Z,18.77
2018-03-20T19:46:34.115Z,21.67
2018-03-20T19:49:00.382Z,19.83
2018-03-20T19:51:26.490Z,18.48
2018-03-20T19:53:52.636Z,22.70
2018-03-20T19:56:18.767Z,20.52
2018-03-20T19:58:44.947Z,20.58
2018-03-20T20:01:11.009Z,16.50
2018-03-20T20:03:37.094Z,20.42
2018-03-20T20:06:03.371Z,14.10
2018-03-20T20:08:29.518Z,17.90
2018-03-20T20:10:55.770Z,15.52
2018-03-20T20:13:21.956Z,18.80
2018-03-20T20:15:48.043Z,19.23
2018-03-20T20:18:14.101Z,20.10
2018-03-20T20:20:40.296Z,18.10
2018-03-20T20:23:06.493Z,17.02
2018-03-20T20:25:32.580Z,18.98
2018-03-20T20:27:58.701Z,27.75
2018-03-20T20:30:24.798Z,22.48
2018-03-20T20:32:50.894Z,35.05
2018-03-20T20:35:17.001Z,17.90
2018-03-20T20:37:43.089Z,21.92
2018-03-20T20:40:09.270Z,23.08
2018-03-20T20:42:35.429Z,22.70
2018-03-20T20:45:01.443Z,20.85
2018-03-20T20:47:27.564Z,20.70
2018-03-20T20:49:53.660Z,20.23
2018-03-20T20:52:19.829Z,21.27
2018-03-20T20:54:45.902Z,21.05
2018-03-20T20:57:11.918Z,24.40
2018-03-20T20:59:38.010Z,14.82
2018-03-20T21:02:04.115Z,18.10
2018-03-20T21:04:30.185Z,19.57
2018-03-20T21:06:56.237Z,22.55
2018-03-20T21:09:22.409Z,23.53
2018-03-20T21:11:48.482Z,21.80
2018-03-20T21:14:14.494Z,22.20
2018-03-20T21:16:40.498Z,16.23
2018-03-20T21:19:06.600Z,20.85
2018-03-20T21:21:32.634Z,23.95
2018-03-20T21:23:58.694Z,24.07
2018-03-20T21:26:24.743Z,18.27
2018-03-20T21:28:50.794Z,18.62
2018-03-20T21:31:16.844Z,15.50
2018-03-20T21:33:42.889Z,20.25
2018-03-20T21:36:09.112Z,18.12
2018-03-20T21:38:35.126Z,23.33
2018-03-20T21:41:01.159Z,18.10
2018-03-20T21:43:27.258Z,21.42
2018-03-20T21:45:53.391Z,16.83
2018-03-20T21:48:19.485Z,20.90
2018-03-20T21:50:46.297Z,22.98
2018-03-20T21:53:12.370Z,20.95
2018-03-20T21:55:38.385Z,25.67
2018-03-20T21:58:04.413Z,20.65
2018-03-20T22:00:30.509Z,24.77
2018-03-20T22:03:03.490Z,27.13
2018-03-20T22:05:29.644Z,22.23
2018-03-20T22:07:55.864Z,22.92
2018-03-20T22:10:21.879Z,18.62
2018-03-20T22:12:48.027Z,20.52
2018-03-20T22:15:14.077Z,18.17
2018-03-20T22:17:40.177Z,19.60
2018-03-20T22:20:06.173Z,19.25
2018-03-20T22:22:32.275Z,20.95
2018-03-20T22:24:58.428Z,13.73
2018-03-20T22:27:24.503Z,23.67
2018-03-20T22:29:50.541Z,28.77
2018-03-20T22:32:16.564Z,21.12
2018-03-20T22:34:42.577Z,28.85
2018-03-20T22:37:08.619Z,26.75
2018-03-20T22:39:35.066Z,21.83
2018-03-20T22:42:01.148Z,25.12
2018-03-20T22:44:27.258Z,22.15
2018-03-20T22:46:53.360Z,18.45
2018-03-20T22:49:19.370Z,23.52
2018-03-20T22:51:46.013Z,24.05
2018-03-20T22:54:12.023Z,23.05
2018-03-20T22:56:38.106Z,17.85
2018-03-20T22:59:04.324Z,17.77
2018-03-20T23:01:30.417Z,28.62
2018-03-20T23:03:56.470Z,19.23
2018-03-20T23:06:22.520Z,22.23
2018-03-20T23:08:48.538Z,16.30
2018-03-20T23:11:14.548Z,21.45
2018-03-20T23:13:40.573Z,17.48
2018-03-20T23:16:06.581Z,18.33
2018-03-20T23:18:32.696Z,25.75
2018-03-20T23:20:58.748Z,16.62
2018-03-20T23:23:24.781Z,29.02
2018-03-20T23:25:50.830Z,25.92
2018-03-20T23:28:17.067Z,24.20
2018-03-20T23:30:43.137Z,20.27
2018-03-20T23:33:09.275Z,26.95
2018-03-20T23:35:35.760Z,21.25
2018-03-20T23:38:02.003Z,23.30
2018-03-20T23:40:28.034Z,21.60
2018-03-20T23:42:54.055Z,20.67
2018-03-20T23:45:20.548Z,27.17
2018-03-20T23:47:46.705Z,20.23
2018-03-20T23:50:12.751Z,23.12
2018-03-20T23:52:38.810Z,20.37
2018-03-20T23:55:04.848Z,16.67
2018-03-20T23:57:30.911Z,23.65
2018-03-20T23:59:56.920Z,19.67
